Hlavní strana
METAR-TAF:

METAR-TAF

Letiště :

Ammán, Jordánsko

zeměpisná šířka: 31-59N, zeměpisná délka: 035-59E, výška: 767 m

Aktuální stav počasí

Zpráva byla vytvořena před 37 minutami, v 18:00 UTC
Bezvětří
Teplota 9°C
Vlhkost vzduchu 66%
Tlak 1017 hPa
Viditelnost: 5000 m
zákal

METAR: OJAM 211800Z 00000KT 5000 HZ NSC 09/03 Q1017 NOSIG

Čas: 20:37 (18:37 UTC)

Předpověď počasí

Zpráva byla vytvořena před 1 hodinou a 47 minutami, v 16:50 UTC
Předpověď platná od 21 v 18 UTC do 22 v 24 UTC
Jihovýchodní vítr 6 kt
Viditelnost: 5000 m
zákal
Dočasný
od 22 v 00 UTC do 22 v 05 UTC
Viditelnost: 3000 m
kouř
Změna
od 22 v 06 UTC do 22 v 08 UTC
Západojihozápadní vítr 14 kt
Viditelnost: 5000 m
zákal

TAF: OJAM 211650Z 2118/2224 13006KT 5000 HZ NSC TEMPO 2200/2205 3000 FU BECMG 2206/2208 25014KT 5000 HZ

Stav a předpovědi počasí z více než 4 000 letišť (zprávy METAR a TAF).

Červené a žluté tečky na mapě představují dostupné meteorologické stanice.

Když kurzor umístíte na tečku, zobrazí se název stanice.

Pak kliknutím zobrazíte stav a předpověď počasí.

Chcete-li změnit mapu, kliknutím na zelené tlačítko se znaménkem +mapu přiblížíte, kliknutím na zelené tlačítko se znaménkem – mapu oddálíte a kliknutím na zelené šipky přejdete na sousední mapy.


METAR-TAF: